createdAt,value
2023-04-18T00:00:52.522Z,11.50
2023-04-18T00:03:23.926Z,12.00
2023-04-18T00:05:59.275Z,15.47
2023-04-18T00:08:38.138Z,12.07
2023-04-18T00:11:13.996Z,11.73
2023-04-18T00:13:43.190Z,12.13
2023-04-18T00:16:16.309Z,11.43
2023-04-18T00:18:52.529Z,12.43
2023-04-18T00:21:22.175Z,13.20
2023-04-18T00:23:53.660Z,12.30
2023-04-18T00:26:26.027Z,11.90
2023-04-18T00:28:54.771Z,14.47
2023-04-18T00:31:27.768Z,11.47
2023-04-18T00:33:58.076Z,13.73
2023-04-18T00:36:27.154Z,12.73
2023-04-18T00:38:55.167Z,13.13
2023-04-18T00:41:29.908Z,13.67
2023-04-18T00:43:57.893Z,12.87
2023-04-18T00:46:25.981Z,14.00
2023-04-18T00:48:54.019Z,12.67
2023-04-18T00:51:22.318Z,13.00
2023-04-18T00:53:54.851Z,14.97
2023-04-18T00:56:34.574Z,15.60
2023-04-18T00:59:02.922Z,16.03
2023-04-18T01:01:36.688Z,12.37
2023-04-18T01:04:05.095Z,13.43
2023-04-18T01:06:36.626Z,14.13
2023-04-18T01:09:10.745Z,14.13
2023-04-18T01:11:47.073Z,13.90
2023-04-18T01:14:19.081Z,19.97
2023-04-18T01:16:48.406Z,12.10
2023-04-18T01:19:20.065Z,14.10
2023-04-18T01:21:50.332Z,14.13
2023-04-18T01:24:24.511Z,15.70
2023-04-18T01:26:55.634Z,12.70
2023-04-18T01:29:23.698Z,15.03
2023-04-18T01:31:51.673Z,13.70
2023-04-18T01:34:21.156Z,14.73
2023-04-18T01:36:49.463Z,12.60
2023-04-18T01:39:19.925Z,14.80
2023-04-18T01:41:49.284Z,14.07
2023-04-18T01:44:18.124Z,13.20
2023-04-18T01:46:49.154Z,14.30
2023-04-18T01:49:17.515Z,15.17
2023-04-18T01:51:47.800Z,12.73
2023-04-18T01:54:19.802Z,11.63
2023-04-18T01:56:49.268Z,15.60
2023-04-18T01:59:17.773Z,13.67
2023-04-18T02:01:48.235Z,13.80
2023-04-18T02:04:18.694Z,14.20
2023-04-18T02:06:48.006Z,14.27
2023-04-18T02:09:26.812Z,12.97
2023-04-18T02:11:59.373Z,11.67
2023-04-18T02:14:30.954Z,15.27
2023-04-18T02:17:01.984Z,11.17
2023-04-18T02:19:35.785Z,11.17
2023-04-18T02:22:06.552Z,12.37
2023-04-18T02:24:35.080Z,12.33
2023-04-18T02:27:04.676Z,10.50
2023-04-18T02:29:33.777Z,12.27
2023-04-18T02:32:01.941Z,13.37
2023-04-18T02:34:30.038Z,13.50
2023-04-18T02:37:06.268Z,13.17
2023-04-18T02:39:34.441Z,11.23
2023-04-18T02:42:03.778Z,13.47
2023-04-18T02:44:31.968Z,11.10
2023-04-18T02:47:00.642Z,12.27
2023-04-18T02:49:35.717Z,14.10
2023-04-18T02:52:03.895Z,12.67
2023-04-18T02:54:32.196Z,12.43
2023-04-18T02:57:07.257Z,11.47
2023-04-18T02:59:47.356Z,14.23
2023-04-18T03:02:36.969Z,12.63
2023-04-18T03:05:18.858Z,14.90
2023-04-18T03:07:51.548Z,14.60
2023-04-18T03:10:29.141Z,14.30
2023-04-18T03:13:03.755Z,12.50
2023-04-18T03:15:32.204Z,12.73
2023-04-18T03:18:04.174Z,15.47
2023-04-18T03:20:40.269Z,12.43
2023-04-18T03:23:09.119Z,12.83
2023-04-18T03:25:41.358Z,13.17
2023-04-18T03:28:11.807Z,15.03
2023-04-18T03:30:42.045Z,14.10
2023-04-18T03:33:18.036Z,14.83
2023-04-18T03:35:47.758Z,15.43
2023-04-18T03:38:18.470Z,13.27
2023-04-18T03:40:48.080Z,15.27
2023-04-18T03:43:27.813Z,13.80
2023-04-18T03:45:58.817Z,13.17
2023-04-18T03:48:29.852Z,14.73
2023-04-18T03:51:01.893Z,12.43
2023-04-18T03:53:34.654Z,12.37
2023-04-18T03:56:02.747Z,13.60
2023-04-18T03:58:55.235Z,12.80
2023-04-18T04:01:30.121Z,15.83
2023-04-18T04:04:00.295Z,16.10
2023-04-18T04:06:31.249Z,13.17
2023-04-18T04:09:04.958Z,21.23
2023-04-18T04:11:37.113Z,19.93
2023-04-18T04:14:09.181Z,16.03
2023-04-18T04:16:50.136Z,13.43
2023-04-18T04:19:18.706Z,15.30
2023-04-18T04:21:56.777Z,12.73
2023-04-18T04:24:24.933Z,15.73
2023-04-18T04:26:53.285Z,13.57
2023-04-18T04:29:26.368Z,14.93
2023-04-18T04:31:56.941Z,13.67
2023-04-18T04:34:32.149Z,13.43
2023-04-18T04:37:06.691Z,14.30
2023-04-18T04:39:43.964Z,15.63
2023-04-18T04:42:41.494Z,14.37
2023-04-18T04:45:18.180Z,15.63
2023-04-18T04:47:47.133Z,17.13
2023-04-18T04:50:15.870Z,16.40
2023-04-18T04:52:49.958Z,17.50
2023-04-18T04:55:24.561Z,16.37
2023-04-18T04:57:57.416Z,17.63
2023-04-18T05:01:05.454Z,18.53
2023-04-18T05:03:42.429Z,15.73
2023-04-18T05:06:11.437Z,15.23
2023-04-18T05:08:44.177Z,14.83
2023-04-18T05:11:16.500Z,14.83
2023-04-18T05:13:46.430Z,18.93
2023-04-18T05:16:19.102Z,16.67
2023-04-18T05:18:57.130Z,18.03
2023-04-18T05:21:28.717Z,15.53
2023-04-18T05:23:58.350Z,14.27
2023-04-18T05:26:26.457Z,14.80
2023-04-18T05:29:03.295Z,15.03
2023-04-18T05:31:37.566Z,15.27
2023-04-18T05:34:08.251Z,16.73
2023-04-18T05:36:36.472Z,15.43
2023-04-18T05:39:05.981Z,14.80
2023-04-18T05:41:34.273Z,15.73
2023-04-18T05:44:07.101Z,14.30
2023-04-18T05:46:41.886Z,15.53
2023-04-18T05:49:15.442Z,14.00
2023-04-18T05:51:49.634Z,16.17
2023-04-18T05:54:27.441Z,13.53
2023-04-18T05:56:58.534Z,13.27
2023-04-18T05:59:30.968Z,14.87
2023-04-18T06:02:02.073Z,14.60
2023-04-18T06:04:33.364Z,16.30
2023-04-18T06:07:01.567Z,18.60
2023-04-18T06:09:31.622Z,12.60
2023-04-18T06:11:59.735Z,14.77
2023-04-18T06:14:27.896Z,12.90
2023-04-18T06:16:58.421Z,16.60
2023-04-18T06:19:27.982Z,15.37
2023-04-18T06:21:56.527Z,13.20
2023-04-18T06:24:27.957Z,14.27
2023-04-18T06:26:59.937Z,13.97
2023-04-18T06:29:33.145Z,12.83
2023-04-18T06:32:05.918Z,13.97
2023-04-18T06:34:38.761Z,14.00
2023-04-18T06:37:11.934Z,14.50
2023-04-18T06:39:41.784Z,14.17
2023-04-18T06:42:09.882Z,12.17
2023-04-18T06:44:47.448Z,13.77
2023-04-18T06:47:17.692Z,13.93
2023-04-18T06:49:49.272Z,14.63
2023-04-18T06:52:20.130Z,13.77
2023-04-18T06:54:48.190Z,16.30
2023-04-18T06:57:16.521Z,14.10
2023-04-18T06:59:44.881Z,15.27
2023-04-18T07:02:17.230Z,14.83
2023-04-18T07:04:55.641Z,15.70
2023-04-18T07:07:26.435Z,12.67
2023-04-18T07:09:57.206Z,14.43
2023-04-18T07:12:25.837Z,11.40
2023-04-18T07:14:57.742Z,12.40
2023-04-18T07:17:28.616Z,14.13
2023-04-18T07:20:08.737Z,13.50
2023-04-18T07:22:40.594Z,12.77
2023-04-18T07:25:12.713Z,12.97
2023-04-18T07:27:45.823Z,13.10
2023-04-18T07:30:17.420Z,13.03
2023-04-18T07:32:49.101Z,11.40
2023-04-18T07:35:18.809Z,12.43
2023-04-18T07:37:47.009Z,11.33
2023-04-18T07:40:16.606Z,13.63
2023-04-18T07:42:44.931Z,10.00
2023-04-18T07:45:15.706Z,10.73
2023-04-18T07:47:43.771Z,14.03
2023-04-18T07:50:12.577Z,10.63
2023-04-18T07:52:44.225Z,10.30
2023-04-18T07:55:15.867Z,10.47
2023-04-18T07:57:50.150Z,10.63
2023-04-18T08:00:21.713Z,10.80
2023-04-18T08:02:55.323Z,12.93
2023-04-18T08:05:32.624Z,10.50
2023-04-18T08:08:05.745Z,10.10
2023-04-18T08:10:33.780Z,9.80
2023-04-18T08:13:04.804Z,9.27
2023-04-18T08:15:33.254Z,9.93
2023-04-18T08:18:07.285Z,9.70
2023-04-18T08:20:38.316Z,10.50
2023-04-18T08:23:10.362Z,9.97
2023-04-18T08:25:43.202Z,9.10
2023-04-18T08:28:16.166Z,10.40
2023-04-18T08:30:49.122Z,9.53
2023-04-18T08:33:18.575Z,9.00
2023-04-18T08:35:50.564Z,9.33
2023-04-18T08:38:21.511Z,8.97
2023-04-18T08:40:53.733Z,10.23
2023-04-18T08:43:25.336Z,8.73
2023-04-18T08:46:00.041Z,8.60
2023-04-18T08:48:33.460Z,9.53
2023-04-18T08:51:02.004Z,10.53
2023-04-18T08:53:32.523Z,11.00
2023-04-18T08:56:03.647Z,8.57
2023-04-18T08:58:33.783Z,9.53
2023-04-18T09:01:04.894Z,9.13
2023-04-18T09:03:43.260Z,8.30
2023-04-18T09:06:16.439Z,8.83
2023-04-18T09:09:01.714Z,8.00
2023-04-18T09:11:32.508Z,8.03
2023-04-18T09:14:08.683Z,7.73
2023-04-18T09:16:48.997Z,8.93
2023-04-18T09:19:18.985Z,8.60
2023-04-18T09:21:49.043Z,7.83
2023-04-18T09:24:22.771Z,8.37
2023-04-18T09:26:58.712Z,7.33
2023-04-18T09:29:46.719Z,8.30
2023-04-18T09:32:24.141Z,9.80
2023-04-18T09:34:58.155Z,7.87
2023-04-18T09:37:27.255Z,7.93
2023-04-18T09:39:59.390Z,8.30
2023-04-18T09:42:30.944Z,7.97
2023-04-18T09:45:04.922Z,7.17
2023-04-18T09:47:37.418Z,8.27
2023-04-18T09:50:13.508Z,9.03
2023-04-18T09:52:43.120Z,8.03
2023-04-18T09:55:18.436Z,7.73
2023-04-18T09:57:47.577Z,7.30
2023-04-18T10:00:24.375Z,10.13
2023-04-18T10:03:00.755Z,7.03
2023-04-18T10:05:32.829Z,7.10
2023-04-18T10:08:06.242Z,8.00
2023-04-18T10:10:37.984Z,6.73
2023-04-18T10:13:14.072Z,7.07
2023-04-18T10:15:45.557Z,7.37
2023-04-18T10:18:19.112Z,9.43
2023-04-18T10:20:48.194Z,7.97
2023-04-18T10:23:38.900Z,7.40
2023-04-18T10:26:11.776Z,7.33
2023-04-18T10:28:58.798Z,7.00
2023-04-18T10:31:28.494Z,6.87
2023-04-18T10:34:05.378Z,8.03
2023-04-18T10:36:37.407Z,7.10
2023-04-18T10:39:22.905Z,7.70
2023-04-18T10:41:54.809Z,7.53
2023-04-18T10:44:29.705Z,7.53
2023-04-18T10:47:24.488Z,7.60
2023-04-18T10:50:11.721Z,7.10
2023-04-18T10:52:43.453Z,7.67
2023-04-18T10:55:20.171Z,7.17
2023-04-18T10:57:54.492Z,7.23
2023-04-18T11:00:33.808Z,9.17
2023-04-18T11:03:07.233Z,7.33
2023-04-18T11:05:35.768Z,8.73
2023-04-18T11:08:04.637Z,8.20
2023-04-18T11:11:05.362Z,11.53
2023-04-18T11:13:41.332Z,8.60
2023-04-18T11:16:10.098Z,7.40
2023-04-18T11:18:54.197Z,6.77
2023-04-18T11:21:34.374Z,7.30
2023-04-18T11:24:02.518Z,7.10
2023-04-18T11:26:32.615Z,7.60
2023-04-18T11:29:07.638Z,6.63
2023-04-18T11:31:35.919Z,6.50
2023-04-18T11:34:04.012Z,7.10
2023-04-18T11:36:35.158Z,7.53
2023-04-18T11:39:03.358Z,9.93
2023-04-18T11:41:31.469Z,7.07
2023-04-18T11:44:07.334Z,7.03
2023-04-18T11:46:39.362Z,6.80
2023-04-18T11:49:08.814Z,8.40
2023-04-18T11:51:38.869Z,7.70
2023-04-18T11:54:13.313Z,6.50
2023-04-18T11:56:53.134Z,9.73
2023-04-18T11:59:25.689Z,7.50
2023-04-18T12:02:15.693Z,6.10
2023-04-18T12:04:57.362Z,6.10
2023-04-18T12:07:37.132Z,6.00
2023-04-18T12:10:09.329Z,6.03
2023-04-18T12:12:37.667Z,7.60
2023-04-18T12:15:09.148Z,6.77
2023-04-18T12:17:44.272Z,5.90
2023-04-18T12:20:14.886Z,6.63
2023-04-18T12:22:45.888Z,7.63
2023-04-18T12:25:27.868Z,6.03
2023-04-18T12:28:00.381Z,7.03
2023-04-18T12:30:38.356Z,4.83
2023-04-18T12:33:06.715Z,5.67
2023-04-18T12:35:34.974Z,7.13
2023-04-18T12:38:07.475Z,5.43
2023-04-18T12:40:36.943Z,5.20
2023-04-18T12:43:18.301Z,5.23
2023-04-18T12:45:59.651Z,5.87
2023-04-18T12:48:34.610Z,5.93
2023-04-18T12:51:08.085Z,5.67
2023-04-18T12:53:37.353Z,5.13
2023-04-18T12:56:10.375Z,4.90
2023-04-18T12:58:39.041Z,6.10
2023-04-18T13:01:09.387Z,4.83
2023-04-18T13:03:42.155Z,5.83
2023-04-18T13:06:10.397Z,5.13
2023-04-18T13:08:41.285Z,5.43
2023-04-18T13:11:09.338Z,5.37
2023-04-18T13:13:42.649Z,5.63
2023-04-18T13:16:12.442Z,7.70
2023-04-18T13:18:41.178Z,5.40
2023-04-18T13:21:12.263Z,7.67
2023-04-18T13:23:40.697Z,6.17
2023-04-18T13:26:09.119Z,5.73
2023-04-18T13:28:37.519Z,5.33
2023-04-18T13:31:06.001Z,5.57
2023-04-18T13:33:35.539Z,5.60
2023-04-18T13:36:03.613Z,6.47
2023-04-18T13:38:31.605Z,5.60
2023-04-18T13:41:11.389Z,6.87
2023-04-18T13:43:41.068Z,6.83
2023-04-18T13:46:09.299Z,7.00
2023-04-18T13:48:42.951Z,7.67
2023-04-18T13:51:10.948Z,14.50
2023-04-18T13:53:41.910Z,8.60
2023-04-18T13:56:16.998Z,6.97
2023-04-18T13:58:49.911Z,6.73
2023-04-18T14:01:18.989Z,7.53
2023-04-18T14:03:50.763Z,6.13
2023-04-18T14:06:19.003Z,7.27
2023-04-18T14:08:47.068Z,7.47
2023-04-18T14:11:18.909Z,8.97
2023-04-18T14:13:58.386Z,6.93
2023-04-18T14:16:32.586Z,7.03
2023-04-18T14:19:02.448Z,8.37
2023-04-18T14:21:33.406Z,9.80
2023-04-18T14:24:01.591Z,6.47
2023-04-18T14:26:32.752Z,7.80
2023-04-18T14:29:11.657Z,7.73
2023-04-18T14:31:40.893Z,8.93
2023-04-18T14:34:13.505Z,7.63
2023-04-18T14:36:42.289Z,8.13
2023-04-18T14:39:10.946Z,6.87
2023-04-18T14:41:39.369Z,7.27
2023-04-18T14:44:07.785Z,7.43
2023-04-18T14:46:36.607Z,7.70
2023-04-18T14:49:08.678Z,7.10
2023-04-18T14:51:38.641Z,6.50
2023-04-18T14:54:11.610Z,7.00
2023-04-18T14:56:41.733Z,6.87
2023-04-18T14:59:17.251Z,6.87
2023-04-18T15:01:45.863Z,9.73
2023-04-18T15:04:17.597Z,7.37
2023-04-18T15:06:52.110Z,8.30
2023-04-18T15:09:25.930Z,8.03
2023-04-18T15:11:55.933Z,7.83
2023-04-18T15:14:24.353Z,7.90
2023-04-18T15:17:03.153Z,7.53
2023-04-18T15:19:35.834Z,7.67
2023-04-18T15:22:05.400Z,7.27
2023-04-18T15:24:37.310Z,9.37
2023-04-18T15:27:06.128Z,7.53
2023-04-18T15:29:41.943Z,7.07
2023-04-18T15:32:13.600Z,7.00
2023-04-18T15:34:41.794Z,6.80
2023-04-18T15:37:16.893Z,7.90
2023-04-18T15:39:47.359Z,7.73
2023-04-18T15:42:16.858Z,7.17
2023-04-18T15:44:44.994Z,7.07
2023-04-18T15:47:16.718Z,6.60
2023-04-18T15:49:50.172Z,7.13
2023-04-18T15:52:25.431Z,6.50
2023-04-18T15:54:53.579Z,6.93
2023-04-18T15:57:22.271Z,6.60
2023-04-18T15:59:50.505Z,5.90
2023-04-18T16:02:21.526Z,6.60
2023-04-18T16:04:49.844Z,6.20
2023-04-18T16:07:22.510Z,7.13
2023-04-18T16:09:50.605Z,6.57
2023-04-18T16:12:21.565Z,6.17
2023-04-18T16:14:54.643Z,5.83
2023-04-18T16:17:27.167Z,5.50
2023-04-18T16:19:55.582Z,5.83
2023-04-18T16:22:26.686Z,5.17
2023-04-18T16:25:05.030Z,6.00
2023-04-18T16:27:35.678Z,5.20
2023-04-18T16:30:07.181Z,5.83
2023-04-18T16:32:35.626Z,5.33
2023-04-18T16:35:06.342Z,5.27
2023-04-18T16:37:36.064Z,5.27
2023-04-18T16:40:17.481Z,5.07
2023-04-18T16:42:45.738Z,5.50
2023-04-18T16:45:14.024Z,6.00
2023-04-18T16:47:42.553Z,5.10
2023-04-18T16:50:11.188Z,5.60
2023-04-18T16:52:41.217Z,4.50
2023-04-18T16:55:10.974Z,5.30
2023-04-18T16:57:39.232Z,4.67
2023-04-18T17:00:10.278Z,4.87
2023-04-18T17:02:44.369Z,4.63
2023-04-18T17:05:13.738Z,5.40
2023-04-18T17:07:46.034Z,8.50
2023-04-18T17:10:18.602Z,5.53
2023-04-18T17:12:55.273Z,5.00
2023-04-18T17:15:23.814Z,4.70
2023-04-18T17:17:55.983Z,4.70
2023-04-18T17:20:30.966Z,4.53
2023-04-18T17:23:00.532Z,4.87
2023-04-18T17:25:29.744Z,4.50
2023-04-18T17:27:57.998Z,5.80
2023-04-18T17:30:28.972Z,6.23
2023-04-18T17:33:01.135Z,4.90
2023-04-18T17:35:36.348Z,4.43
2023-04-18T17:38:14.393Z,5.27
2023-04-18T17:40:44.886Z,4.33
2023-04-18T17:43:13.175Z,4.47
2023-04-18T17:45:41.659Z,5.20
2023-04-18T17:48:13.194Z,4.80
2023-04-18T17:50:42.200Z,4.77
2023-04-18T17:53:12.915Z,4.70
2023-04-18T17:55:41.632Z,4.40
2023-04-18T17:58:20.429Z,4.67
2023-04-18T18:00:52.080Z,5.77
2023-04-18T18:03:23.260Z,4.57
2023-04-18T18:05:55.057Z,5.07
2023-04-18T18:08:29.603Z,5.50
2023-04-18T18:11:02.495Z,5.13
2023-04-18T18:13:30.603Z,6.50
2023-04-18T18:15:58.904Z,5.00
2023-04-18T18:18:35.208Z,6.10
2023-04-18T18:21:20.594Z,6.00
2023-04-18T18:23:56.057Z,4.90
2023-04-18T18:26:27.091Z,6.47
2023-04-18T18:28:56.297Z,4.53
2023-04-18T18:31:45.957Z,5.13
2023-04-18T18:34:16.958Z,5.30
2023-04-18T18:36:50.076Z,5.03
2023-04-18T18:39:23.950Z,5.13
2023-04-18T18:41:54.215Z,5.80
2023-04-18T18:44:25.171Z,7.27
2023-04-18T18:46:56.476Z,5.20
2023-04-18T18:49:26.215Z,5.13
2023-04-18T18:51:56.170Z,5.43
2023-04-18T18:54:30.365Z,4.93
2023-04-18T18:57:03.943Z,4.90
2023-04-18T18:59:33.317Z,5.57
2023-04-18T19:02:04.862Z,5.07
2023-04-18T19:04:38.931Z,4.87
2023-04-18T19:07:17.919Z,4.93
2023-04-18T19:09:49.786Z,4.53
2023-04-18T19:12:18.221Z,6.70
2023-04-18T19:14:47.947Z,5.87
2023-04-18T19:17:21.890Z,5.43
2023-04-18T19:19:51.277Z,5.53
2023-04-18T19:22:26.081Z,7.30
2023-04-18T19:25:01.332Z,5.73
2023-04-18T19:27:35.328Z,6.30
2023-04-18T19:30:05.661Z,6.17
2023-04-18T19:32:38.333Z,6.43
2023-04-18T19:35:07.282Z,5.47
2023-04-18T19:37:39.208Z,5.53
2023-04-18T19:40:12.047Z,5.30
2023-04-18T19:42:40.264Z,5.50
2023-04-18T19:45:16.781Z,5.60
2023-04-18T19:47:49.293Z,5.40
2023-04-18T19:50:18.894Z,5.77
2023-04-18T19:52:47.173Z,6.03
2023-04-18T19:55:17.020Z,5.73
2023-04-18T19:57:48.716Z,6.10
2023-04-18T20:00:17.993Z,5.37
2023-04-18T20:02:53.619Z,5.60
2023-04-18T20:05:24.182Z,5.80
2023-04-18T20:07:55.738Z,5.73
2023-04-18T20:10:25.551Z,5.07
2023-04-18T20:12:53.828Z,5.00
2023-04-18T20:15:26.638Z,5.37
2023-04-18T20:17:56.858Z,7.13
2023-04-18T20:20:25.453Z,5.40
2023-04-18T20:22:59.725Z,5.20
2023-04-18T20:25:36.102Z,5.40
2023-04-18T20:28:06.754Z,5.43
2023-04-18T20:30:36.285Z,6.67
2023-04-18T20:33:05.496Z,6.10
2023-04-18T20:35:36.498Z,5.27
2023-04-18T20:38:11.196Z,5.20
2023-04-18T20:40:55.700Z,7.53
2023-04-18T20:43:28.703Z,4.93
2023-04-18T20:46:00.993Z,5.50
2023-04-18T20:48:29.114Z,6.70
2023-04-18T20:50:59.704Z,5.93
2023-04-18T20:53:28.990Z,7.37
2023-04-18T20:56:06.519Z,7.23
2023-04-18T20:58:37.752Z,5.60
2023-04-18T21:01:09.044Z,5.60
2023-04-18T21:03:47.889Z,5.77
2023-04-18T21:06:16.238Z,6.27
2023-04-18T21:08:44.287Z,5.20
2023-04-18T21:11:22.303Z,5.13
2023-04-18T21:13:55.170Z,5.73
2023-04-18T21:16:24.027Z,5.80
2023-04-18T21:18:52.409Z,5.77
2023-04-18T21:21:27.001Z,5.03
2023-04-18T21:23:57.205Z,6.30
2023-04-18T21:26:32.315Z,6.40
2023-04-18T21:29:01.784Z,5.97
2023-04-18T21:31:31.256Z,5.70
2023-04-18T21:34:03.874Z,5.87
2023-04-18T21:36:32.444Z,6.23
2023-04-18T21:39:01.735Z,5.87
2023-04-18T21:41:31.373Z,8.30
2023-04-18T21:43:59.542Z,6.60
2023-04-18T21:46:29.255Z,6.07
2023-04-18T21:49:00.280Z,6.83
2023-04-18T21:51:31.840Z,6.40
2023-04-18T21:54:00.566Z,7.53
2023-04-18T21:56:31.661Z,6.20
2023-04-18T21:59:01.424Z,6.03
2023-04-18T22:01:30.549Z,6.50
2023-04-18T22:03:59.578Z,7.00
2023-04-18T22:06:32.433Z,7.13
2023-04-18T22:09:03.704Z,6.83
2023-04-18T22:11:32.633Z,6.07
2023-04-18T22:14:02.405Z,7.23
2023-04-18T22:16:38.798Z,8.00
2023-04-18T22:19:09.074Z,6.60
2023-04-18T22:21:38.026Z,9.83
2023-04-18T22:24:07.099Z,6.93
2023-04-18T22:26:37.817Z,8.70
2023-04-18T22:29:10.828Z,6.10
2023-04-18T22:31:38.893Z,8.47
2023-04-18T22:34:12.666Z,7.20
2023-04-18T22:36:40.924Z,7.53
2023-04-18T22:39:12.108Z,6.33
2023-04-18T22:41:45.208Z,7.07
2023-04-18T22:44:17.876Z,6.97
2023-04-18T22:46:48.128Z,6.83
2023-04-18T22:49:18.043Z,6.87
2023-04-18T22:51:54.567Z,6.53
2023-04-18T22:54:22.717Z,8.87
2023-04-18T22:56:51.312Z,7.43
2023-04-18T22:59:21.027Z,7.00
2023-04-18T23:01:49.190Z,6.93
2023-04-18T23:04:25.216Z,6.50
2023-04-18T23:06:53.375Z,7.33
2023-04-18T23:09:24.560Z,6.30
2023-04-18T23:11:52.714Z,6.90
2023-04-18T23:14:24.361Z,6.47
2023-04-18T23:16:52.399Z,6.50
2023-04-18T23:19:23.997Z,6.57
2023-04-18T23:21:54.336Z,6.60
2023-04-18T23:24:25.516Z,6.17
2023-04-18T23:26:57.111Z,5.53
2023-04-18T23:29:26.544Z,8.20
2023-04-18T23:31:56.829Z,8.87
2023-04-18T23:34:25.004Z,7.50
2023-04-18T23:36:54.182Z,7.20
2023-04-18T23:39:26.744Z,6.50
2023-04-18T23:41:56.712Z,6.37
2023-04-18T23:44:36.930Z,5.97
2023-04-18T23:47:05.280Z,6.30
2023-04-18T23:49:33.475Z,5.90
2023-04-18T23:52:04.945Z,5.30
2023-04-18T23:54:35.930Z,6.27
2023-04-18T23:57:04.033Z,5.70
2023-04-18T23:59:34.893Z,5.77
